sensor_id;sensor_type;location;lat;lon;timestamp;P1;durP1;ratioP1;P2;durP2;ratioP2
4375;SDS011;2202;50.866;12.750;2022-08-21T00:00:07;31.90;;;25.00;;
4375;SDS011;2202;50.866;12.750;2022-08-21T00:02:37;32.90;;;25.57;;
4375;SDS011;2202;50.866;12.750;2022-08-21T00:05:11;30.43;;;23.87;;
4375;SDS011;2202;50.866;12.750;2022-08-21T00:07:38;30.40;;;24.43;;
4375;SDS011;2202;50.866;12.750;2022-08-21T00:10:05;30.03;;;24.73;;
4375;SDS011;2202;50.866;12.750;2022-08-21T00:12:33;33.90;;;23.37;;
4375;SDS011;2202;50.866;12.750;2022-08-21T00:15:00;30.97;;;24.50;;
4375;SDS011;2202;50.866;12.750;2022-08-21T00:17:27;32.73;;;24.77;;
4375;SDS011;2202;50.866;12.750;2022-08-21T00:19:54;33.13;;;24.13;;
4375;SDS011;2202;50.866;12.750;2022-08-21T00:22:23;31.23;;;24.30;;
4375;SDS011;2202;50.866;12.750;2022-08-21T00:24:50;34.13;;;24.50;;
4375;SDS011;2202;50.866;12.750;2022-08-21T00:27:17;31.80;;;23.53;;
4375;SDS011;2202;50.866;12.750;2022-08-21T00:29:44;27.93;;;23.00;;
4375;SDS011;2202;50.866;12.750;2022-08-21T00:32:11;27.00;;;22.37;;
4375;SDS011;2202;50.866;12.750;2022-08-21T00:34:38;31.90;;;25.10;;
4375;SDS011;2202;50.866;12.750;2022-08-21T00:37:05;31.93;;;24.47;;
4375;SDS011;2202;50.866;12.750;2022-08-21T00:39:34;28.70;;;22.50;;
4375;SDS011;2202;50.866;12.750;2022-08-21T00:42:01;31.93;;;23.53;;
4375;SDS011;2202;50.866;12.750;2022-08-21T00:44:28;30.67;;;23.67;;
4375;SDS011;2202;50.866;12.750;2022-08-21T00:46:56;45.97;;;24.83;;
4375;SDS011;2202;50.866;12.750;2022-08-21T00:49:23;27.53;;;24.37;;
4375;SDS011;2202;50.866;12.750;2022-08-21T00:51:51;33.60;;;26.10;;
4375;SDS011;2202;50.866;12.750;2022-08-21T00:54:20;30.83;;;24.00;;
4375;SDS011;2202;50.866;12.750;2022-08-21T00:56:51;31.20;;;24.97;;
4375;SDS011;2202;50.866;12.750;2022-08-21T00:59:21;32.53;;;25.40;;
4375;SDS011;2202;50.866;12.750;2022-08-21T01:01:51;31.77;;;26.33;;
4375;SDS011;2202;50.866;12.750;2022-08-21T01:04:18;32.60;;;25.57;;
4375;SDS011;2202;50.866;12.750;2022-08-21T01:06:45;34.60;;;25.60;;
4375;SDS011;2202;50.866;12.750;2022-08-21T01:09:12;32.60;;;24.60;;
4375;SDS011;2202;50.866;12.750;2022-08-21T01:11:40;39.03;;;27.17;;
4375;SDS011;2202;50.866;12.750;2022-08-21T01:14:09;33.07;;;26.60;;
4375;SDS011;2202;50.866;12.750;2022-08-21T01:16:38;34.90;;;26.60;;
4375;SDS011;2202;50.866;12.750;2022-08-21T01:19:06;38.70;;;29.47;;
4375;SDS011;2202;50.866;12.750;2022-08-21T01:21:35;36.43;;;27.57;;
4375;SDS011;2202;50.866;12.750;2022-08-21T01:24:02;40.10;;;30.57;;
4375;SDS011;2202;50.866;12.750;2022-08-21T01:26:31;40.40;;;27.80;;
4375;SDS011;2202;50.866;12.750;2022-08-21T01:29:01;37.63;;;29.80;;
4375;SDS011;2202;50.866;12.750;2022-08-21T01:31:33;40.10;;;28.20;;
4375;SDS011;2202;50.866;12.750;2022-08-21T01:34:00;43.47;;;31.00;;
4375;SDS011;2202;50.866;12.750;2022-08-21T01:36:27;38.53;;;29.60;;
4375;SDS011;2202;50.866;12.750;2022-08-21T01:38:56;43.70;;;33.17;;
4375;SDS011;2202;50.866;12.750;2022-08-21T01:41:23;45.13;;;30.67;;
4375;SDS011;2202;50.866;12.750;2022-08-21T01:43:50;46.77;;;31.50;;
4375;SDS011;2202;50.866;12.750;2022-08-21T01:46:17;47.30;;;31.40;;
4375;SDS011;2202;50.866;12.750;2022-08-21T01:48:44;38.07;;;30.00;;
4375;SDS011;2202;50.866;12.750;2022-08-21T01:51:11;45.83;;;32.27;;
4375;SDS011;2202;50.866;12.750;2022-08-21T01:53:38;47.20;;;34.53;;
4375;SDS011;2202;50.866;12.750;2022-08-21T01:56:08;52.17;;;37.80;;
4375;SDS011;2202;50.866;12.750;2022-08-21T01:58:36;50.73;;;36.80;;
4375;SDS011;2202;50.866;12.750;2022-08-21T02:01:03;53.83;;;37.60;;
4375;SDS011;2202;50.866;12.750;2022-08-21T02:03:30;63.37;;;42.33;;
4375;SDS011;2202;50.866;12.750;2022-08-21T02:05:58;66.57;;;41.40;;
4375;SDS011;2202;50.866;12.750;2022-08-21T02:08:24;60.10;;;41.70;;
4375;SDS011;2202;50.866;12.750;2022-08-21T02:10:51;62.00;;;41.20;;
4375;SDS011;2202;50.866;12.750;2022-08-21T02:13:20;65.77;;;42.60;;
4375;SDS011;2202;50.866;12.750;2022-08-21T02:15:47;78.43;;;46.40;;
4375;SDS011;2202;50.866;12.750;2022-08-21T02:18:14;81.23;;;48.70;;
4375;SDS011;2202;50.866;12.750;2022-08-21T02:20:42;76.27;;;47.67;;
4375;SDS011;2202;50.866;12.750;2022-08-21T02:23:12;86.83;;;50.20;;
4375;SDS011;2202;50.866;12.750;2022-08-21T02:25:39;82.63;;;48.03;;
4375;SDS011;2202;50.866;12.750;2022-08-21T02:28:08;84.00;;;49.13;;
4375;SDS011;2202;50.866;12.750;2022-08-21T02:30:40;73.90;;;47.80;;
4375;SDS011;2202;50.866;12.750;2022-08-21T02:33:09;72.30;;;46.70;;
4375;SDS011;2202;50.866;12.750;2022-08-21T02:35:37;79.87;;;48.77;;
4375;SDS011;2202;50.866;12.750;2022-08-21T02:38:05;78.20;;;49.00;;
4375;SDS011;2202;50.866;12.750;2022-08-21T02:40:35;65.40;;;44.63;;
4375;SDS011;2202;50.866;12.750;2022-08-21T02:43:04;67.97;;;44.63;;
4375;SDS011;2202;50.866;12.750;2022-08-21T02:45:32;66.83;;;46.10;;
4375;SDS011;2202;50.866;12.750;2022-08-21T02:48:02;59.53;;;40.97;;
4375;SDS011;2202;50.866;12.750;2022-08-21T02:50:32;65.97;;;42.30;;
4375;SDS011;2202;50.866;12.750;2022-08-21T02:53:01;66.50;;;42.67;;
4375;SDS011;2202;50.866;12.750;2022-08-21T02:55:29;71.10;;;42.57;;
4375;SDS011;2202;50.866;12.750;2022-08-21T02:57:57;59.17;;;38.10;;
4375;SDS011;2202;50.866;12.750;2022-08-21T03:00:25;55.93;;;38.90;;
4375;SDS011;2202;50.866;12.750;2022-08-21T03:02:54;53.43;;;38.13;;
4375;SDS011;2202;50.866;12.750;2022-08-21T03:05:23;54.40;;;38.00;;
4375;SDS011;2202;50.866;12.750;2022-08-21T03:07:50;56.70;;;39.07;;
4375;SDS011;2202;50.866;12.750;2022-08-21T03:10:18;54.90;;;37.73;;
4375;SDS011;2202;50.866;12.750;2022-08-21T03:12:46;59.00;;;36.63;;
4375;SDS011;2202;50.866;12.750;2022-08-21T03:15:15;60.97;;;37.20;;
4375;SDS011;2202;50.866;12.750;2022-08-21T03:17:43;59.07;;;38.97;;
4375;SDS011;2202;50.866;12.750;2022-08-21T03:20:10;54.10;;;37.97;;
4375;SDS011;2202;50.866;12.750;2022-08-21T03:22:40;54.80;;;37.87;;
4375;SDS011;2202;50.866;12.750;2022-08-21T03:25:08;46.03;;;32.07;;
4375;SDS011;2202;50.866;12.750;2022-08-21T03:27:35;54.80;;;36.30;;
4375;SDS011;2202;50.866;12.750;2022-08-21T03:30:04;50.97;;;35.87;;
4375;SDS011;2202;50.866;12.750;2022-08-21T03:32:32;57.87;;;37.73;;
4375;SDS011;2202;50.866;12.750;2022-08-21T03:35:00;55.80;;;38.17;;
4375;SDS011;2202;50.866;12.750;2022-08-21T03:37:27;56.87;;;36.57;;
4375;SDS011;2202;50.866;12.750;2022-08-21T03:39:56;46.67;;;33.07;;
4375;SDS011;2202;50.866;12.750;2022-08-21T03:42:22;46.50;;;33.40;;
4375;SDS011;2202;50.866;12.750;2022-08-21T03:44:49;52.87;;;34.47;;
4375;SDS011;2202;50.866;12.750;2022-08-21T03:47:16;47.50;;;33.50;;
4375;SDS011;2202;50.866;12.750;2022-08-21T03:49:43;45.30;;;32.93;;
4375;SDS011;2202;50.866;12.750;2022-08-21T03:52:10;46.67;;;32.97;;
4375;SDS011;2202;50.866;12.750;2022-08-21T03:54:37;44.00;;;30.77;;
4375;SDS011;2202;50.866;12.750;2022-08-21T03:57:06;44.50;;;30.13;;
4375;SDS011;2202;50.866;12.750;2022-08-21T03:59:33;39.97;;;29.67;;
4375;SDS011;2202;50.866;12.750;2022-08-21T04:02:01;47.80;;;32.77;;
4375;SDS011;2202;50.866;12.750;2022-08-21T04:04:30;49.63;;;33.93;;
4375;SDS011;2202;50.866;12.750;2022-08-21T04:06:57;53.53;;;36.30;;
4375;SDS011;2202;50.866;12.750;2022-08-21T04:09:25;51.07;;;34.03;;
4375;SDS011;2202;50.866;12.750;2022-08-21T04:11:52;49.00;;;33.60;;
4375;SDS011;2202;50.866;12.750;2022-08-21T04:14:21;53.90;;;39.87;;
4375;SDS011;2202;50.866;12.750;2022-08-21T04:16:48;55.80;;;35.17;;
4375;SDS011;2202;50.866;12.750;2022-08-21T04:19:15;54.70;;;37.87;;
4375;SDS011;2202;50.866;12.750;2022-08-21T04:21:42;57.70;;;37.03;;
4375;SDS011;2202;50.866;12.750;2022-08-21T04:24:09;55.20;;;36.20;;
4375;SDS011;2202;50.866;12.750;2022-08-21T04:26:37;61.27;;;39.03;;
4375;SDS011;2202;50.866;12.750;2022-08-21T04:29:04;57.87;;;39.30;;
4375;SDS011;2202;50.866;12.750;2022-08-21T04:31:33;68.17;;;43.00;;
4375;SDS011;2202;50.866;12.750;2022-08-21T04:34:01;71.33;;;43.67;;
4375;SDS011;2202;50.866;12.750;2022-08-21T04:36:29;68.73;;;43.37;;
4375;SDS011;2202;50.866;12.750;2022-08-21T04:38:56;71.83;;;43.73;;
4375;SDS011;2202;50.866;12.750;2022-08-21T04:41:24;79.10;;;46.07;;
4375;SDS011;2202;50.866;12.750;2022-08-21T04:43:51;76.77;;;45.67;;
4375;SDS011;2202;50.866;12.750;2022-08-21T04:46:20;81.80;;;46.10;;
4375;SDS011;2202;50.866;12.750;2022-08-21T04:48:48;93.47;;;51.27;;
4375;SDS011;2202;50.866;12.750;2022-08-21T04:51:16;78.57;;;45.93;;
4375;SDS011;2202;50.866;12.750;2022-08-21T04:53:46;83.67;;;47.87;;
4375;SDS011;2202;50.866;12.750;2022-08-21T04:56:19;77.73;;;45.07;;
4375;SDS011;2202;50.866;12.750;2022-08-21T04:58:49;81.90;;;46.70;;
4375;SDS011;2202;50.866;12.750;2022-08-21T05:01:19;85.40;;;47.63;;
4375;SDS011;2202;50.866;12.750;2022-08-21T05:03:52;79.63;;;45.60;;
4375;SDS011;2202;50.866;12.750;2022-08-21T05:06:22;80.53;;;46.37;;
4375;SDS011;2202;50.866;12.750;2022-08-21T05:08:51;78.80;;;45.20;;
4375;SDS011;2202;50.866;12.750;2022-08-21T05:11:19;88.47;;;47.10;;
4375;SDS011;2202;50.866;12.750;2022-08-21T05:13:47;74.30;;;46.97;;
4375;SDS011;2202;50.866;12.750;2022-08-21T05:16:14;75.67;;;46.20;;
4375;SDS011;2202;50.866;12.750;2022-08-21T05:18:41;61.03;;;42.63;;
4375;SDS011;2202;50.866;12.750;2022-08-21T05:21:10;74.63;;;44.33;;
4375;SDS011;2202;50.866;12.750;2022-08-21T05:23:37;75.63;;;44.40;;
4375;SDS011;2202;50.866;12.750;2022-08-21T05:26:04;71.77;;;42.30;;
4375;SDS011;2202;50.866;12.750;2022-08-21T05:28:31;65.73;;;41.87;;
4375;SDS011;2202;50.866;12.750;2022-08-21T05:30:58;73.23;;;42.67;;
4375;SDS011;2202;50.866;12.750;2022-08-21T05:33:25;74.53;;;42.80;;
4375;SDS011;2202;50.866;12.750;2022-08-21T05:35:53;64.60;;;41.70;;
4375;SDS011;2202;50.866;12.750;2022-08-21T05:38:22;75.20;;;44.90;;
4375;SDS011;2202;50.866;12.750;2022-08-21T05:40:50;66.47;;;43.47;;
4375;SDS011;2202;50.866;12.750;2022-08-21T05:43:17;66.63;;;43.40;;
4375;SDS011;2202;50.866;12.750;2022-08-21T05:45:43;60.97;;;38.20;;
4375;SDS011;2202;50.866;12.750;2022-08-21T05:48:11;61.50;;;39.17;;
4375;SDS011;2202;50.866;12.750;2022-08-21T05:50:40;56.97;;;39.10;;
4375;SDS011;2202;50.866;12.750;2022-08-21T05:53:08;54.27;;;36.90;;
4375;SDS011;2202;50.866;12.750;2022-08-21T05:55:37;50.77;;;35.57;;
4375;SDS011;2202;50.866;12.750;2022-08-21T05:58:04;52.43;;;34.17;;
4375;SDS011;2202;50.866;12.750;2022-08-21T06:00:31;53.53;;;34.60;;
4375;SDS011;2202;50.866;12.750;2022-08-21T06:02:58;53.47;;;33.93;;
4375;SDS011;2202;50.866;12.750;2022-08-21T06:05:26;50.00;;;33.27;;
4375;SDS011;2202;50.866;12.750;2022-08-21T06:07:52;49.50;;;33.43;;
4375;SDS011;2202;50.866;12.750;2022-08-21T06:10:19;49.53;;;33.77;;
4375;SDS011;2202;50.866;12.750;2022-08-21T06:12:48;53.17;;;34.77;;
4375;SDS011;2202;50.866;12.750;2022-08-21T06:15:19;49.00;;;33.40;;
4375;SDS011;2202;50.866;12.750;2022-08-21T06:17:46;47.93;;;32.60;;
4375;SDS011;2202;50.866;12.750;2022-08-21T06:20:13;44.80;;;31.53;;
4375;SDS011;2202;50.866;12.750;2022-08-21T06:22:40;49.87;;;34.77;;
4375;SDS011;2202;50.866;12.750;2022-08-21T06:25:07;48.53;;;34.30;;
4375;SDS011;2202;50.866;12.750;2022-08-21T06:27:35;54.53;;;34.60;;
4375;SDS011;2202;50.866;12.750;2022-08-21T06:30:04;47.40;;;36.30;;
4375;SDS011;2202;50.866;12.750;2022-08-21T06:32:33;49.90;;;33.20;;
4375;SDS011;2202;50.866;12.750;2022-08-21T06:35:00;54.17;;;32.43;;
4375;SDS011;2202;50.866;12.750;2022-08-21T06:37:27;48.60;;;34.00;;
4375;SDS011;2202;50.866;12.750;2022-08-21T06:39:54;50.43;;;33.40;;
4375;SDS011;2202;50.866;12.750;2022-08-21T06:42:21;45.27;;;32.90;;
4375;SDS011;2202;50.866;12.750;2022-08-21T06:44:48;48.13;;;33.47;;
4375;SDS011;2202;50.866;12.750;2022-08-21T06:47:16;49.07;;;34.20;;
4375;SDS011;2202;50.866;12.750;2022-08-21T06:49:43;47.13;;;32.30;;
4375;SDS011;2202;50.866;12.750;2022-08-21T06:52:11;47.00;;;32.40;;
4375;SDS011;2202;50.866;12.750;2022-08-21T06:54:39;43.27;;;30.93;;
4375;SDS011;2202;50.866;12.750;2022-08-21T06:57:06;47.40;;;35.00;;
4375;SDS011;2202;50.866;12.750;2022-08-21T06:59:33;46.67;;;31.67;;
4375;SDS011;2202;50.866;12.750;2022-08-21T07:02:00;50.73;;;31.70;;
4375;SDS011;2202;50.866;12.750;2022-08-21T07:04:29;51.40;;;33.67;;
4375;SDS011;2202;50.866;12.750;2022-08-21T07:06:56;45.20;;;33.10;;
4375;SDS011;2202;50.866;12.750;2022-08-21T07:09:23;42.60;;;33.40;;
4375;SDS011;2202;50.866;12.750;2022-08-21T07:11:52;46.80;;;32.83;;
4375;SDS011;2202;50.866;12.750;2022-08-21T07:14:20;39.40;;;29.50;;
4375;SDS011;2202;50.866;12.750;2022-08-21T07:16:48;43.67;;;32.00;;
4375;SDS011;2202;50.866;12.750;2022-08-21T07:19:16;42.30;;;30.53;;
4375;SDS011;2202;50.866;12.750;2022-08-21T07:21:45;42.50;;;30.77;;
4375;SDS011;2202;50.866;12.750;2022-08-21T07:24:12;44.60;;;33.57;;
4375;SDS011;2202;50.866;12.750;2022-08-21T07:26:39;42.87;;;29.87;;
4375;SDS011;2202;50.866;12.750;2022-08-21T07:29:06;37.37;;;28.60;;
4375;SDS011;2202;50.866;12.750;2022-08-21T07:31:33;37.90;;;28.00;;
4375;SDS011;2202;50.866;12.750;2022-08-21T07:34:00;38.17;;;26.77;;
4375;SDS011;2202;50.866;12.750;2022-08-21T07:36:27;38.70;;;26.97;;
4375;SDS011;2202;50.866;12.750;2022-08-21T07:38:56;35.30;;;27.70;;
4375;SDS011;2202;50.866;12.750;2022-08-21T07:41:23;38.73;;;28.90;;
4375;SDS011;2202;50.866;12.750;2022-08-21T07:43:53;35.93;;;26.90;;
4375;SDS011;2202;50.866;12.750;2022-08-21T07:46:20;31.70;;;24.40;;
4375;SDS011;2202;50.866;12.750;2022-08-21T07:48:47;30.50;;;23.07;;
4375;SDS011;2202;50.866;12.750;2022-08-21T07:51:15;31.90;;;24.80;;
4375;SDS011;2202;50.866;12.750;2022-08-21T07:53:47;31.30;;;24.07;;
4375;SDS011;2202;50.866;12.750;2022-08-21T07:56:16;28.90;;;23.33;;
4375;SDS011;2202;50.866;12.750;2022-08-21T07:58:43;29.30;;;21.50;;
4375;SDS011;2202;50.866;12.750;2022-08-21T08:01:10;25.97;;;21.43;;
4375;SDS011;2202;50.866;12.750;2022-08-21T08:03:37;28.20;;;23.50;;
4375;SDS011;2202;50.866;12.750;2022-08-21T08:06:05;31.10;;;21.53;;
4375;SDS011;2202;50.866;12.750;2022-08-21T08:08:33;34.63;;;23.77;;
4375;SDS011;2202;50.866;12.750;2022-08-21T08:11:00;38.57;;;23.53;;
4375;SDS011;2202;50.866;12.750;2022-08-21T08:13:29;28.23;;;23.60;;
4375;SDS011;2202;50.866;12.750;2022-08-21T08:15:56;27.20;;;20.03;;
4375;SDS011;2202;50.866;12.750;2022-08-21T08:18:22;30.67;;;23.70;;
4375;SDS011;2202;50.866;12.750;2022-08-21T08:20:49;27.70;;;22.67;;
4375;SDS011;2202;50.866;12.750;2022-08-21T08:23:17;32.20;;;22.60;;
4375;SDS011;2202;50.866;12.750;2022-08-21T08:25:44;30.77;;;22.87;;
4375;SDS011;2202;50.866;12.750;2022-08-21T08:28:11;28.33;;;22.87;;
4375;SDS011;2202;50.866;12.750;2022-08-21T08:30:39;28.00;;;20.70;;
4375;SDS011;2202;50.866;12.750;2022-08-21T08:33:07;28.10;;;19.80;;
4375;SDS011;2202;50.866;12.750;2022-08-21T08:35:34;20.60;;;17.97;;
4375;SDS011;2202;50.866;12.750;2022-08-21T08:38:02;29.23;;;18.60;;
4375;SDS011;2202;50.866;12.750;2022-08-21T08:40:32;26.17;;;17.97;;
4375;SDS011;2202;50.866;12.750;2022-08-21T08:43:06;23.53;;;17.53;;
4375;SDS011;2202;50.866;12.750;2022-08-21T08:45:34;20.50;;;15.40;;
4375;SDS011;2202;50.866;12.750;2022-08-21T08:48:08;19.77;;;15.90;;
4375;SDS011;2202;50.866;12.750;2022-08-21T08:50:40;20.10;;;17.37;;
4375;SDS011;2202;50.866;12.750;2022-08-21T08:53:10;21.67;;;15.73;;
4375;SDS011;2202;50.866;12.750;2022-08-21T08:55:42;17.43;;;14.33;;
4375;SDS011;2202;50.866;12.750;2022-08-21T08:58:11;25.83;;;15.87;;
4375;SDS011;2202;50.866;12.750;2022-08-21T09:00:42;17.77;;;13.60;;
4375;SDS011;2202;50.866;12.750;2022-08-21T09:03:14;18.27;;;13.53;;
4375;SDS011;2202;50.866;12.750;2022-08-21T09:05:43;16.73;;;13.67;;
4375;SDS011;2202;50.866;12.750;2022-08-21T09:08:20;17.93;;;13.47;;
4375;SDS011;2202;50.866;12.750;2022-08-21T09:10:57;14.60;;;12.27;;
4375;SDS011;2202;50.866;12.750;2022-08-21T09:13:38;13.97;;;12.57;;
4375;SDS011;2202;50.866;12.750;2022-08-21T09:16:17;15.00;;;13.33;;
4375;SDS011;2202;50.866;12.750;2022-08-21T09:18:54;16.60;;;11.67;;
4375;SDS011;2202;50.866;12.750;2022-08-21T09:21:31;15.67;;;12.33;;
4375;SDS011;2202;50.866;12.750;2022-08-21T09:24:09;16.20;;;12.90;;
4375;SDS011;2202;50.866;12.750;2022-08-21T09:26:49;15.70;;;11.30;;
4375;SDS011;2202;50.866;12.750;2022-08-21T09:29:23;12.70;;;10.27;;
4375;SDS011;2202;50.866;12.750;2022-08-21T09:31:54;11.10;;;9.20;;
4375;SDS011;2202;50.866;12.750;2022-08-21T09:34:26;10.90;;;8.33;;
4375;SDS011;2202;50.866;12.750;2022-08-21T09:36:54;12.83;;;9.30;;
4375;SDS011;2202;50.866;12.750;2022-08-21T09:39:23;12.53;;;7.70;;
4375;SDS011;2202;50.866;12.750;2022-08-21T09:41:55;10.10;;;6.80;;
4375;SDS011;2202;50.866;12.750;2022-08-21T09:44:25;13.83;;;7.33;;
4375;SDS011;2202;50.866;12.750;2022-08-21T09:46:53;7.70;;;5.50;;
4375;SDS011;2202;50.866;12.750;2022-08-21T09:49:28;12.73;;;4.80;;
4375;SDS011;2202;50.866;12.750;2022-08-21T09:51:55;11.40;;;5.63;;
4375;SDS011;2202;50.866;12.750;2022-08-21T09:54:26;8.10;;;5.17;;
4375;SDS011;2202;50.866;12.750;2022-08-21T09:56:57;10.57;;;4.77;;
4375;SDS011;2202;50.866;12.750;2022-08-21T09:59:43;8.50;;;4.60;;
4375;SDS011;2202;50.866;12.750;2022-08-21T10:05:06;6.30;;;3.83;;
4375;SDS011;2202;50.866;12.750;2022-08-21T10:07:36;9.30;;;4.47;;
4375;SDS011;2202;50.866;12.750;2022-08-21T10:10:05;6.87;;;3.70;;
4375;SDS011;2202;50.866;12.750;2022-08-21T10:12:38;8.20;;;3.87;;
4375;SDS011;2202;50.866;12.750;2022-08-21T10:15:13;11.80;;;6.27;;
4375;SDS011;2202;50.866;12.750;2022-08-21T10:17:49;6.80;;;3.50;;
4375;SDS011;2202;50.866;12.750;2022-08-21T10:20:22;13.10;;;4.57;;
4375;SDS011;2202;50.866;12.750;2022-08-21T10:22:59;8.80;;;3.73;;
4375;SDS011;2202;50.866;12.750;2022-08-21T10:25:35;7.50;;;4.17;;
4375;SDS011;2202;50.866;12.750;2022-08-21T10:28:10;8.33;;;3.97;;
4375;SDS011;2202;50.866;12.750;2022-08-21T10:30:45;10.60;;;4.30;;
4375;SDS011;2202;50.866;12.750;2022-08-21T10:33:19;11.00;;;4.10;;
4375;SDS011;2202;50.866;12.750;2022-08-21T10:35:56;11.40;;;3.60;;
4375;SDS011;2202;50.866;12.750;2022-08-21T10:38:49;9.37;;;3.73;;
4375;SDS011;2202;50.866;12.750;2022-08-21T10:41:33;8.77;;;4.40;;
4375;SDS011;2202;50.866;12.750;2022-08-21T10:47:00;15.97;;;4.50;;
4375;SDS011;2202;50.866;12.750;2022-08-21T10:49:32;15.60;;;4.40;;
4375;SDS011;2202;50.866;12.750;2022-08-21T10:52:13;9.20;;;3.50;;
4375;SDS011;2202;50.866;12.750;2022-08-21T10:54:51;12.83;;;4.30;;
4375;SDS011;2202;50.866;12.750;2022-08-21T10:57:23;7.33;;;3.63;;
4375;SDS011;2202;50.866;12.750;2022-08-21T10:59:57;8.40;;;3.33;;
4375;SDS011;2202;50.866;12.750;2022-08-21T11:02:30;9.50;;;3.97;;
4375;SDS011;2202;50.866;12.750;2022-08-21T11:05:05;10.20;;;3.93;;
4375;SDS011;2202;50.866;12.750;2022-08-21T11:07:39;13.00;;;3.93;;
4375;SDS011;2202;50.866;12.750;2022-08-21T11:10:13;12.00;;;3.67;;
4375;SDS011;2202;50.866;12.750;2022-08-21T11:12:45;11.87;;;4.27;;
4375;SDS011;2202;50.866;12.750;2022-08-21T11:18:05;9.40;;;3.80;;
4375;SDS011;2202;50.866;12.750;2022-08-21T11:20:43;11.90;;;3.60;;
4375;SDS011;2202;50.866;12.750;2022-08-21T11:23:18;10.47;;;3.57;;
4375;SDS011;2202;50.866;12.750;2022-08-21T11:25:49;8.57;;;3.90;;
4375;SDS011;2202;50.866;12.750;2022-08-21T11:28:21;9.07;;;3.80;;
4375;SDS011;2202;50.866;12.750;2022-08-21T11:30:52;12.27;;;3.87;;
4375;SDS011;2202;50.866;12.750;2022-08-21T11:33:31;10.33;;;3.93;;
4375;SDS011;2202;50.866;12.750;2022-08-21T11:36:11;9.60;;;4.17;;
4375;SDS011;2202;50.866;12.750;2022-08-21T11:38:47;9.47;;;3.73;;
4375;SDS011;2202;50.866;12.750;2022-08-21T11:41:22;8.37;;;3.60;;
4375;SDS011;2202;50.866;12.750;2022-08-21T11:43:56;10.60;;;3.83;;
4375;SDS011;2202;50.866;12.750;2022-08-21T11:46:31;8.90;;;3.97;;
4375;SDS011;2202;50.866;12.750;2022-08-21T11:49:15;10.70;;;3.80;;
4375;SDS011;2202;50.866;12.750;2022-08-21T11:51:53;9.10;;;3.50;;
4375;SDS011;2202;50.866;12.750;2022-08-21T11:54:29;11.50;;;4.60;;
4375;SDS011;2202;50.866;12.750;2022-08-21T11:57:03;10.20;;;4.20;;
4375;SDS011;2202;50.866;12.750;2022-08-21T11:59:36;10.03;;;4.00;;
4375;SDS011;2202;50.866;12.750;2022-08-21T12:02:07;7.90;;;4.30;;
4375;SDS011;2202;50.866;12.750;2022-08-21T12:04:42;12.17;;;4.30;;
4375;SDS011;2202;50.866;12.750;2022-08-21T12:07:13;10.37;;;4.07;;
4375;SDS011;2202;50.866;12.750;2022-08-21T12:09:51;9.00;;;4.20;;
4375;SDS011;2202;50.866;12.750;2022-08-21T12:12:24;17.37;;;4.17;;
4375;SDS011;2202;50.866;12.750;2022-08-21T12:15:16;9.20;;;4.27;;
4375;SDS011;2202;50.866;12.750;2022-08-21T12:17:41;9.80;;;3.93;;
4375;SDS011;2202;50.866;12.750;2022-08-21T12:20:22;13.10;;;4.80;;
4375;SDS011;2202;50.866;12.750;2022-08-21T12:23:03;8.53;;;4.13;;
4375;SDS011;2202;50.866;12.750;2022-08-21T12:25:37;10.43;;;4.43;;
4375;SDS011;2202;50.866;12.750;2022-08-21T12:28:06;9.23;;;3.70;;
4375;SDS011;2202;50.866;12.750;2022-08-21T12:30:36;10.67;;;3.90;;
4375;SDS011;2202;50.866;12.750;2022-08-21T12:33:06;10.60;;;3.93;;
4375;SDS011;2202;50.866;12.750;2022-08-21T12:35:50;9.57;;;4.23;;
4375;SDS011;2202;50.866;12.750;2022-08-21T12:38:20;9.33;;;3.17;;
4375;SDS011;2202;50.866;12.750;2022-08-21T12:40:54;8.40;;;3.80;;
4375;SDS011;2202;50.866;12.750;2022-08-21T12:43:25;9.07;;;5.17;;
4375;SDS011;2202;50.866;12.750;2022-08-21T12:45:55;10.23;;;4.03;;
4375;SDS011;2202;50.866;12.750;2022-08-21T12:48:27;10.93;;;3.80;;
4375;SDS011;2202;50.866;12.750;2022-08-21T12:50:58;10.70;;;4.13;;
4375;SDS011;2202;50.866;12.750;2022-08-21T12:53:36;17.43;;;5.17;;
4375;SDS011;2202;50.866;12.750;2022-08-21T12:56:09;10.93;;;4.00;;
4375;SDS011;2202;50.866;12.750;2022-08-21T12:58:39;13.37;;;4.23;;
4375;SDS011;2202;50.866;12.750;2022-08-21T13:01:12;9.10;;;4.20;;
4375;SDS011;2202;50.866;12.750;2022-08-21T13:03:43;10.33;;;4.37;;
4375;SDS011;2202;50.866;12.750;2022-08-21T13:06:12;10.40;;;4.50;;
4375;SDS011;2202;50.866;12.750;2022-08-21T13:08:42;11.27;;;5.30;;
4375;SDS011;2202;50.866;12.750;2022-08-21T13:11:13;11.63;;;4.70;;
4375;SDS011;2202;50.866;12.750;2022-08-21T13:13:42;10.17;;;4.23;;
4375;SDS011;2202;50.866;12.750;2022-08-21T13:16:14;11.70;;;4.50;;
4375;SDS011;2202;50.866;12.750;2022-08-21T13:18:51;11.00;;;4.37;;
4375;SDS011;2202;50.866;12.750;2022-08-21T13:21:21;15.67;;;4.83;;
4375;SDS011;2202;50.866;12.750;2022-08-21T13:23:53;9.37;;;4.67;;
4375;SDS011;2202;50.866;12.750;2022-08-21T13:26:21;9.43;;;4.10;;
4375;SDS011;2202;50.866;12.750;2022-08-21T13:28:49;9.80;;;4.20;;
4375;SDS011;2202;50.866;12.750;2022-08-21T13:31:17;10.70;;;5.90;;
4375;SDS011;2202;50.866;12.750;2022-08-21T13:33:47;10.90;;;4.57;;
4375;SDS011;2202;50.866;12.750;2022-08-21T13:36:17;12.43;;;5.13;;
4375;SDS011;2202;50.866;12.750;2022-08-21T13:38:50;10.57;;;5.10;;
4375;SDS011;2202;50.866;12.750;2022-08-21T13:41:20;11.67;;;5.30;;
4375;SDS011;2202;50.866;12.750;2022-08-21T13:43:56;8.93;;;4.73;;
4375;SDS011;2202;50.866;12.750;2022-08-21T13:46:26;15.00;;;5.07;;
4375;SDS011;2202;50.866;12.750;2022-08-21T13:48:56;9.93;;;5.07;;
4375;SDS011;2202;50.866;12.750;2022-08-21T13:51:25;9.83;;;5.60;;
4375;SDS011;2202;50.866;12.750;2022-08-21T13:53:52;10.20;;;5.50;;
4375;SDS011;2202;50.866;12.750;2022-08-21T13:56:23;15.17;;;5.97;;
4375;SDS011;2202;50.866;12.750;2022-08-21T13:58:51;12.73;;;5.77;;
4375;SDS011;2202;50.866;12.750;2022-08-21T14:01:21;10.80;;;4.50;;
4375;SDS011;2202;50.866;12.750;2022-08-21T14:03:50;13.50;;;5.50;;
4375;SDS011;2202;50.866;12.750;2022-08-21T14:06:19;14.00;;;5.93;;
4375;SDS011;2202;50.866;12.750;2022-08-21T14:08:49;9.90;;;4.87;;
4375;SDS011;2202;50.866;12.750;2022-08-21T14:11:18;16.80;;;5.07;;
4375;SDS011;2202;50.866;12.750;2022-08-21T14:13:47;11.97;;;5.43;;
4375;SDS011;2202;50.866;12.750;2022-08-21T14:16:22;13.63;;;5.37;;
4375;SDS011;2202;50.866;12.750;2022-08-21T14:18:52;9.83;;;5.67;;
4375;SDS011;2202;50.866;12.750;2022-08-21T14:21:24;11.00;;;5.50;;
4375;SDS011;2202;50.866;12.750;2022-08-21T14:24:07;10.57;;;5.10;;
4375;SDS011;2202;50.866;12.750;2022-08-21T14:26:42;13.63;;;4.53;;
4375;SDS011;2202;50.866;12.750;2022-08-21T14:29:14;13.43;;;5.03;;
4375;SDS011;2202;50.866;12.750;2022-08-21T14:31:43;9.83;;;4.73;;
4375;SDS011;2202;50.866;12.750;2022-08-21T14:34:15;11.60;;;5.80;;
4375;SDS011;2202;50.866;12.750;2022-08-21T14:36:43;11.30;;;4.60;;
4375;SDS011;2202;50.866;12.750;2022-08-21T14:39:10;9.30;;;5.23;;
4375;SDS011;2202;50.866;12.750;2022-08-21T14:41:37;10.40;;;4.90;;
4375;SDS011;2202;50.866;12.750;2022-08-21T14:44:04;12.03;;;5.30;;
4375;SDS011;2202;50.866;12.750;2022-08-21T14:46:34;10.83;;;5.00;;
4375;SDS011;2202;50.866;12.750;2022-08-21T14:49:02;18.03;;;5.80;;
4375;SDS011;2202;50.866;12.750;2022-08-21T14:51:30;10.67;;;4.73;;
4375;SDS011;2202;50.866;12.750;2022-08-21T14:53:57;11.80;;;5.67;;
4375;SDS011;2202;50.866;12.750;2022-08-21T14:56:23;9.47;;;5.30;;
4375;SDS011;2202;50.866;12.750;2022-08-21T14:58:51;10.17;;;4.90;;
4375;SDS011;2202;50.866;12.750;2022-08-21T15:01:21;8.23;;;5.00;;
4375;SDS011;2202;50.866;12.750;2022-08-21T15:03:50;17.23;;;5.00;;